Startpagina
METAR-TAF:

METAR-TAF

Vliegvelden :

Madrid, Spanje

Aeropuerto Adolfo Suárez Madrid-Barajas

breedte: 40-27N, lengte: 003-33W, hoogte: 609 m

Actueel weer

Dit bericht is 32 minuten geleden gemaakt, om 05:30 UTC
Weinig wind
Temperatuur 7°C
Vochtigheid 81%
Druk 1026 hPa
Zicht 10 km of meer
geen wolken onder 1500 m en geen cumulonimbus

METAR: LEMD 240530Z 00000KT CAVOK 07/04 Q1026 NOSIG

Tijdstip: 08:02 (06:02 UTC)

Verwachting

Dit bericht is 1 uur en het 2 minuten geleden gemaakt, om 05:00 UTC
Verwachting geldig van 24 om 06 UTC tot 25 om 12 UTC
Wind 4 kt uit variabele richting
Zicht 10 km of meer
geen wolken onder 1500 m en geen cumulonimbus

TAF: LEMD 240500Z 2406/2512 VRB04KT CAVOK TX25/2415Z TN06/2507Z

Waarnemingen en weersverwachtingen van meer dan 4000 vliegvelden (METAR en TAF).

De beschikbare stations zijn de gele en rode punten op de kaart.

Ga met uw muis naar het station om de naam te zien.

Klik dan om waarnemingen en weersverwachtingen te zien.

kaart wijzigen: klik op de groene knoppen met een zwart kruis om in te zoomen, op de groene knop met een streepje om uit te zoomen of op de groene pijlen voor aangrenzende kaarten.


METAR-TAF: